Terminal Aerodrome Forecast
Issued by NWS Springfield, MO

Home | Current Version | Previous Version | Text Only | Print | Product List | Glossary On
Versions: 1 2 3 4 5 6 7 8 9 10 11 12 13 14 15 16 17 18
439
FTUS43 KSGF 081720
TAFSGF
TAF
KSGF 081720Z 0818/0918 32024G35KT P6SM -SHSN OVC040
     FM090000 32021G33KT P6SM BKN035
     FM090400 32016KT P6SM BKN040
     FM091100 32014KT P6SM SCT110=

USA.gov is the U.S. government's official web portal to all federal, state and local government web resources and services.